sensor_id;sensor_type;location;lat;lon;timestamp;P1;durP1;ratioP1;P2;durP2;ratioP2
51824;SDS011;37879;52.986;6.282;2022-07-29T00:00:38;1.92;;;0.80;;
51824;SDS011;37879;52.986;6.282;2022-07-29T00:03:05;2.40;;;0.80;;
51824;SDS011;37879;52.986;6.282;2022-07-29T00:05:31;2.15;;;1.00;;
51824;SDS011;37879;52.986;6.282;2022-07-29T00:07:57;2.05;;;0.70;;
51824;SDS011;37879;52.986;6.282;2022-07-29T00:10:23;2.58;;;0.82;;
51824;SDS011;37879;52.986;6.282;2022-07-29T00:12:49;1.77;;;0.90;;
51824;SDS011;37879;52.986;6.282;2022-07-29T00:15:15;3.25;;;1.15;;
51824;SDS011;37879;52.986;6.282;2022-07-29T00:17:41;1.40;;;0.90;;
51824;SDS011;37879;52.986;6.282;2022-07-29T00:20:07;3.97;;;1.00;;
51824;SDS011;37879;52.986;6.282;2022-07-29T00:22:36;2.03;;;0.80;;
51824;SDS011;37879;52.986;6.282;2022-07-29T00:25:02;1.83;;;1.15;;
51824;SDS011;37879;52.986;6.282;2022-07-29T00:27:29;2.47;;;0.90;;
51824;SDS011;37879;52.986;6.282;2022-07-29T00:29:55;2.75;;;0.88;;
51824;SDS011;37879;52.986;6.282;2022-07-29T00:32:21;2.55;;;0.93;;
51824;SDS011;37879;52.986;6.282;2022-07-29T00:34:48;1.40;;;0.85;;
51824;SDS011;37879;52.986;6.282;2022-07-29T00:37:33;3.60;;;1.20;;
51824;SDS011;37879;52.986;6.282;2022-07-29T00:39:59;2.97;;;1.10;;
51824;SDS011;37879;52.986;6.282;2022-07-29T00:42:25;1.55;;;1.10;;
51824;SDS011;37879;52.986;6.282;2022-07-29T00:44:52;2.13;;;1.38;;
51824;SDS011;37879;52.986;6.282;2022-07-29T00:47:18;2.75;;;1.15;;
51824;SDS011;37879;52.986;6.282;2022-07-29T00:49:44;2.72;;;1.23;;
51824;SDS011;37879;52.986;6.282;2022-07-29T00:52:11;2.55;;;0.90;;
51824;SDS011;37879;52.986;6.282;2022-07-29T00:54:37;3.17;;;0.90;;
51824;SDS011;37879;52.986;6.282;2022-07-29T00:57:04;1.83;;;1.05;;
51824;SDS011;37879;52.986;6.282;2022-07-29T00:59:31;4.78;;;1.27;;
51824;SDS011;37879;52.986;6.282;2022-07-29T01:01:57;2.50;;;1.10;;
51824;SDS011;37879;52.986;6.282;2022-07-29T01:04:23;3.03;;;1.23;;
51824;SDS011;37879;52.986;6.282;2022-07-29T01:06:50;3.58;;;1.40;;
51824;SDS011;37879;52.986;6.282;2022-07-29T01:09:16;5.00;;;1.15;;
51824;SDS011;37879;52.986;6.282;2022-07-29T01:11:43;6.15;;;1.60;;
51824;SDS011;37879;52.986;6.282;2022-07-29T01:14:10;4.88;;;1.30;;
51824;SDS011;37879;52.986;6.282;2022-07-29T01:16:39;2.17;;;1.25;;
51824;SDS011;37879;52.986;6.282;2022-07-29T01:19:13;3.22;;;2.10;;
51824;SDS011;37879;52.986;6.282;2022-07-29T01:21:51;4.00;;;1.58;;
51824;SDS011;37879;52.986;6.282;2022-07-29T01:29:54;4.68;;;2.05;;
51824;SDS011;37879;52.986;6.282;2022-07-29T01:32:28;3.75;;;1.55;;
51824;SDS011;37879;52.986;6.282;2022-07-29T01:34:57;3.35;;;1.27;;
51824;SDS011;37879;52.986;6.282;2022-07-29T01:37:44;3.15;;;1.63;;
51824;SDS011;37879;52.986;6.282;2022-07-29T01:40:18;5.32;;;1.55;;
51824;SDS011;37879;52.986;6.282;2022-07-29T01:42:47;4.55;;;1.27;;
51824;SDS011;37879;52.986;6.282;2022-07-29T01:45:16;3.90;;;1.80;;
51824;SDS011;37879;52.986;6.282;2022-07-29T01:47:44;2.47;;;1.35;;
51824;SDS011;37879;52.986;6.282;2022-07-29T01:50:14;2.20;;;1.73;;
51824;SDS011;37879;52.986;6.282;2022-07-29T01:52:49;3.83;;;1.60;;
51824;SDS011;37879;52.986;6.282;2022-07-29T01:55:18;2.25;;;1.35;;
51824;SDS011;37879;52.986;6.282;2022-07-29T01:57:46;5.13;;;1.88;;
51824;SDS011;37879;52.986;6.282;2022-07-29T02:00:13;2.25;;;1.40;;
51824;SDS011;37879;52.986;6.282;2022-07-29T02:02:41;3.67;;;1.58;;
51824;SDS011;37879;52.986;6.282;2022-07-29T02:05:09;2.72;;;0.90;;
51824;SDS011;37879;52.986;6.282;2022-07-29T02:07:36;2.72;;;1.20;;
51824;SDS011;37879;52.986;6.282;2022-07-29T02:10:03;2.05;;;1.35;;
51824;SDS011;37879;52.986;6.282;2022-07-29T02:12:30;4.57;;;1.20;;
51824;SDS011;37879;52.986;6.282;2022-07-29T02:14:57;3.63;;;1.38;;
51824;SDS011;37879;52.986;6.282;2022-07-29T02:17:32;4.95;;;1.95;;
51824;SDS011;37879;52.986;6.282;2022-07-29T02:19:59;2.78;;;1.42;;
51824;SDS011;37879;52.986;6.282;2022-07-29T02:22:26;2.65;;;1.30;;
51824;SDS011;37879;52.986;6.282;2022-07-29T02:24:55;4.07;;;1.35;;
51824;SDS011;37879;52.986;6.282;2022-07-29T02:27:21;5.65;;;1.60;;
51824;SDS011;37879;52.986;6.282;2022-07-29T02:29:48;2.92;;;1.40;;
51824;SDS011;37879;52.986;6.282;2022-07-29T02:32:14;4.07;;;1.30;;
51824;SDS011;37879;52.986;6.282;2022-07-29T02:34:41;3.75;;;1.33;;
51824;SDS011;37879;52.986;6.282;2022-07-29T02:37:09;3.58;;;1.23;;
51824;SDS011;37879;52.986;6.282;2022-07-29T02:39:35;3.15;;;1.63;;
51824;SDS011;37879;52.986;6.282;2022-07-29T02:42:03;3.95;;;1.35;;
51824;SDS011;37879;52.986;6.282;2022-07-29T02:44:31;1.60;;;1.10;;
51824;SDS011;37879;52.986;6.282;2022-07-29T02:49:55;3.08;;;1.55;;
51824;SDS011;37879;52.986;6.282;2022-07-29T02:52:26;3.42;;;1.67;;
51824;SDS011;37879;52.986;6.282;2022-07-29T02:57:53;1.77;;;1.15;;
51824;SDS011;37879;52.986;6.282;2022-07-29T03:00:21;3.23;;;1.47;;
51824;SDS011;37879;52.986;6.282;2022-07-29T03:02:49;3.92;;;1.58;;
51824;SDS011;37879;52.986;6.282;2022-07-29T03:05:17;3.53;;;1.70;;
51824;SDS011;37879;52.986;6.282;2022-07-29T03:07:45;1.80;;;1.13;;
51824;SDS011;37879;52.986;6.282;2022-07-29T03:10:11;2.13;;;0.93;;
51824;SDS011;37879;52.986;6.282;2022-07-29T03:12:38;7.18;;;1.30;;
51824;SDS011;37879;52.986;6.282;2022-07-29T03:15:05;2.47;;;1.48;;
51824;SDS011;37879;52.986;6.282;2022-07-29T03:17:31;2.60;;;1.40;;
51824;SDS011;37879;52.986;6.282;2022-07-29T03:19:58;2.55;;;1.15;;
51824;SDS011;37879;52.986;6.282;2022-07-29T03:22:25;2.63;;;1.88;;
51824;SDS011;37879;52.986;6.282;2022-07-29T03:24:51;8.02;;;1.60;;
51824;SDS011;37879;52.986;6.282;2022-07-29T03:27:17;2.85;;;1.45;;
51824;SDS011;37879;52.986;6.282;2022-07-29T03:29:43;3.00;;;1.20;;
51824;SDS011;37879;52.986;6.282;2022-07-29T03:32:09;2.08;;;1.15;;
51824;SDS011;37879;52.986;6.282;2022-07-29T03:34:36;5.63;;;1.20;;
51824;SDS011;37879;52.986;6.282;2022-07-29T03:37:03;4.18;;;1.52;;
51824;SDS011;37879;52.986;6.282;2022-07-29T03:39:31;2.03;;;1.20;;
51824;SDS011;37879;52.986;6.282;2022-07-29T03:41:59;2.40;;;1.38;;
51824;SDS011;37879;52.986;6.282;2022-07-29T03:44:26;3.67;;;1.80;;
51824;SDS011;37879;52.986;6.282;2022-07-29T03:46:54;2.58;;;1.27;;
51824;SDS011;37879;52.986;6.282;2022-07-29T03:49:21;2.92;;;1.30;;
51824;SDS011;37879;52.986;6.282;2022-07-29T03:51:48;2.58;;;1.42;;
51824;SDS011;37879;52.986;6.282;2022-07-29T03:54:15;2.40;;;1.15;;
51824;SDS011;37879;52.986;6.282;2022-07-29T03:56:42;5.70;;;1.80;;
51824;SDS011;37879;52.986;6.282;2022-07-29T03:59:11;2.60;;;1.05;;
51824;SDS011;37879;52.986;6.282;2022-07-29T04:01:38;1.85;;;0.82;;
51824;SDS011;37879;52.986;6.282;2022-07-29T04:04:04;3.55;;;1.10;;
51824;SDS011;37879;52.986;6.282;2022-07-29T04:06:37;4.13;;;1.15;;
51824;SDS011;37879;52.986;6.282;2022-07-29T04:09:04;4.32;;;2.05;;
51824;SDS011;37879;52.986;6.282;2022-07-29T04:11:30;3.55;;;1.30;;
51824;SDS011;37879;52.986;6.282;2022-07-29T04:13:56;2.90;;;1.20;;
51824;SDS011;37879;52.986;6.282;2022-07-29T04:16:22;3.97;;;1.90;;
51824;SDS011;37879;52.986;6.282;2022-07-29T04:18:48;3.67;;;1.60;;
51824;SDS011;37879;52.986;6.282;2022-07-29T04:21:14;4.30;;;1.08;;
51824;SDS011;37879;52.986;6.282;2022-07-29T04:23:40;4.10;;;1.50;;
51824;SDS011;37879;52.986;6.282;2022-07-29T04:26:10;3.20;;;1.20;;
51824;SDS011;37879;52.986;6.282;2022-07-29T04:28:36;3.95;;;1.55;;
51824;SDS011;37879;52.986;6.282;2022-07-29T04:31:04;4.28;;;1.40;;
51824;SDS011;37879;52.986;6.282;2022-07-29T04:33:30;5.32;;;1.42;;
51824;SDS011;37879;52.986;6.282;2022-07-29T04:35:56;4.82;;;1.85;;
51824;SDS011;37879;52.986;6.282;2022-07-29T04:38:22;2.38;;;1.30;;
51824;SDS011;37879;52.986;6.282;2022-07-29T04:40:49;2.45;;;1.45;;
51824;SDS011;37879;52.986;6.282;2022-07-29T04:43:15;2.90;;;1.50;;
51824;SDS011;37879;52.986;6.282;2022-07-29T04:45:41;7.10;;;2.05;;
51824;SDS011;37879;52.986;6.282;2022-07-29T04:48:07;4.75;;;0.98;;
51824;SDS011;37879;52.986;6.282;2022-07-29T04:50:34;4.57;;;1.08;;
51824;SDS011;37879;52.986;6.282;2022-07-29T04:53:00;6.82;;;2.63;;
51824;SDS011;37879;52.986;6.282;2022-07-29T04:55:26;4.40;;;1.05;;
51824;SDS011;37879;52.986;6.282;2022-07-29T04:57:52;2.45;;;1.20;;
51824;SDS011;37879;52.986;6.282;2022-07-29T05:00:18;3.85;;;1.30;;
51824;SDS011;37879;52.986;6.282;2022-07-29T05:02:44;3.17;;;1.80;;
51824;SDS011;37879;52.986;6.282;2022-07-29T05:05:10;2.75;;;1.08;;
51824;SDS011;37879;52.986;6.282;2022-07-29T05:07:36;2.72;;;1.20;;
51824;SDS011;37879;52.986;6.282;2022-07-29T05:10:03;2.72;;;1.23;;
51824;SDS011;37879;52.986;6.282;2022-07-29T05:12:29;5.03;;;1.58;;
51824;SDS011;37879;52.986;6.282;2022-07-29T05:14:55;2.83;;;1.30;;
51824;SDS011;37879;52.986;6.282;2022-07-29T05:17:21;3.90;;;1.60;;
51824;SDS011;37879;52.986;6.282;2022-07-29T05:19:47;3.58;;;1.23;;
51824;SDS011;37879;52.986;6.282;2022-07-29T05:22:15;3.05;;;0.90;;
51824;SDS011;37879;52.986;6.282;2022-07-29T05:24:41;4.35;;;1.17;;
51824;SDS011;37879;52.986;6.282;2022-07-29T05:27:07;2.88;;;1.50;;
51824;SDS011;37879;52.986;6.282;2022-07-29T05:29:34;2.53;;;1.02;;
51824;SDS011;37879;52.986;6.282;2022-07-29T05:32:00;4.95;;;1.30;;
51824;SDS011;37879;52.986;6.282;2022-07-29T05:34:26;2.55;;;1.02;;
51824;SDS011;37879;52.986;6.282;2022-07-29T05:36:52;5.43;;;1.23;;
51824;SDS011;37879;52.986;6.282;2022-07-29T05:39:18;4.95;;;1.13;;
51824;SDS011;37879;52.986;6.282;2022-07-29T05:41:45;2.88;;;0.90;;
51824;SDS011;37879;52.986;6.282;2022-07-29T05:44:11;3.33;;;1.30;;
51824;SDS011;37879;52.986;6.282;2022-07-29T05:46:38;5.63;;;1.20;;
51824;SDS011;37879;52.986;6.282;2022-07-29T05:49:04;3.55;;;1.30;;
51824;SDS011;37879;52.986;6.282;2022-07-29T05:51:31;4.35;;;1.40;;
51824;SDS011;37879;52.986;6.282;2022-07-29T05:53:58;3.35;;;1.42;;
51824;SDS011;37879;52.986;6.282;2022-07-29T05:56:24;3.72;;;1.40;;
51824;SDS011;37879;52.986;6.282;2022-07-29T05:58:50;3.58;;;1.20;;
51824;SDS011;37879;52.986;6.282;2022-07-29T06:01:17;4.40;;;1.40;;
51824;SDS011;37879;52.986;6.282;2022-07-29T06:03:43;2.40;;;1.20;;
51824;SDS011;37879;52.986;6.282;2022-07-29T06:06:09;6.75;;;1.60;;
51824;SDS011;37879;52.986;6.282;2022-07-29T06:08:35;4.07;;;1.55;;
51824;SDS011;37879;52.986;6.282;2022-07-29T06:11:03;6.40;;;1.90;;
51824;SDS011;37879;52.986;6.282;2022-07-29T06:13:29;5.03;;;1.60;;
51824;SDS011;37879;52.986;6.282;2022-07-29T06:15:56;3.10;;;1.23;;
51824;SDS011;37879;52.986;6.282;2022-07-29T06:18:22;4.88;;;1.27;;
51824;SDS011;37879;52.986;6.282;2022-07-29T06:20:52;5.20;;;1.33;;
51824;SDS011;37879;52.986;6.282;2022-07-29T06:23:18;3.95;;;1.60;;
51824;SDS011;37879;52.986;6.282;2022-07-29T06:25:45;3.20;;;1.30;;
51824;SDS011;37879;52.986;6.282;2022-07-29T06:28:11;2.53;;;1.40;;
51824;SDS011;37879;52.986;6.282;2022-07-29T06:30:38;2.30;;;1.40;;
51824;SDS011;37879;52.986;6.282;2022-07-29T06:33:04;2.72;;;1.25;;
51824;SDS011;37879;52.986;6.282;2022-07-29T06:35:32;5.63;;;1.48;;
51824;SDS011;37879;52.986;6.282;2022-07-29T06:37:58;6.55;;;1.25;;
51824;SDS011;37879;52.986;6.282;2022-07-29T06:40:25;6.43;;;1.35;;
51824;SDS011;37879;52.986;6.282;2022-07-29T06:43:10;3.35;;;1.50;;
51824;SDS011;37879;52.986;6.282;2022-07-29T06:45:36;3.75;;;1.60;;
51824;SDS011;37879;52.986;6.282;2022-07-29T06:48:05;3.65;;;1.23;;
51824;SDS011;37879;52.986;6.282;2022-07-29T06:50:32;2.03;;;1.40;;
51824;SDS011;37879;52.986;6.282;2022-07-29T06:52:58;3.85;;;1.20;;
51824;SDS011;37879;52.986;6.282;2022-07-29T06:55:24;5.43;;;1.30;;
51824;SDS011;37879;52.986;6.282;2022-07-29T06:57:50;2.42;;;1.48;;
51824;SDS011;37879;52.986;6.282;2022-07-29T07:00:16;2.92;;;1.23;;
51824;SDS011;37879;52.986;6.282;2022-07-29T07:02:42;5.85;;;1.90;;
51824;SDS011;37879;52.986;6.282;2022-07-29T07:05:08;6.95;;;2.17;;
51824;SDS011;37879;52.986;6.282;2022-07-29T07:07:35;4.25;;;1.80;;
51824;SDS011;37879;52.986;6.282;2022-07-29T07:10:01;4.10;;;1.77;;
51824;SDS011;37879;52.986;6.282;2022-07-29T07:12:27;2.40;;;1.40;;
51824;SDS011;37879;52.986;6.282;2022-07-29T07:14:53;5.97;;;1.50;;
51824;SDS011;37879;52.986;6.282;2022-07-29T07:17:19;5.28;;;1.88;;
51824;SDS011;37879;52.986;6.282;2022-07-29T07:19:45;3.22;;;1.67;;
51824;SDS011;37879;52.986;6.282;2022-07-29T07:22:11;5.18;;;1.30;;
51824;SDS011;37879;52.986;6.282;2022-07-29T07:24:37;4.28;;;1.55;;
51824;SDS011;37879;52.986;6.282;2022-07-29T07:27:03;4.32;;;1.65;;
51824;SDS011;37879;52.986;6.282;2022-07-29T07:29:29;2.85;;;1.65;;
51824;SDS011;37879;52.986;6.282;2022-07-29T07:31:56;4.75;;;1.50;;
51824;SDS011;37879;52.986;6.282;2022-07-29T07:34:23;4.22;;;1.90;;
51824;SDS011;37879;52.986;6.282;2022-07-29T07:36:49;3.05;;;1.52;;
51824;SDS011;37879;52.986;6.282;2022-07-29T07:39:15;5.30;;;1.90;;
51824;SDS011;37879;52.986;6.282;2022-07-29T07:41:41;5.05;;;1.50;;
51824;SDS011;37879;52.986;6.282;2022-07-29T07:44:07;5.05;;;1.25;;
51824;SDS011;37879;52.986;6.282;2022-07-29T07:46:36;6.72;;;1.40;;
51824;SDS011;37879;52.986;6.282;2022-07-29T07:49:02;2.72;;;1.25;;
51824;SDS011;37879;52.986;6.282;2022-07-29T07:51:28;5.40;;;1.70;;
51824;SDS011;37879;52.986;6.282;2022-07-29T07:53:54;3.20;;;1.20;;
51824;SDS011;37879;52.986;6.282;2022-07-29T07:56:20;5.22;;;1.45;;
51824;SDS011;37879;52.986;6.282;2022-07-29T07:58:46;3.95;;;1.38;;
51824;SDS011;37879;52.986;6.282;2022-07-29T08:01:12;3.42;;;1.38;;
51824;SDS011;37879;52.986;6.282;2022-07-29T08:03:39;5.78;;;1.52;;
51824;SDS011;37879;52.986;6.282;2022-07-29T08:06:05;6.78;;;1.60;;
51824;SDS011;37879;52.986;6.282;2022-07-29T08:08:31;3.30;;;1.35;;
51824;SDS011;37879;52.986;6.282;2022-07-29T08:10:57;6.97;;;2.08;;
51824;SDS011;37879;52.986;6.282;2022-07-29T08:13:25;7.57;;;1.80;;
51824;SDS011;37879;52.986;6.282;2022-07-29T08:15:53;5.18;;;1.80;;
51824;SDS011;37879;52.986;6.282;2022-07-29T08:18:26;6.45;;;1.73;;
51824;SDS011;37879;52.986;6.282;2022-07-29T08:20:52;7.05;;;1.50;;
51824;SDS011;37879;52.986;6.282;2022-07-29T08:23:18;3.17;;;1.40;;
51824;SDS011;37879;52.986;6.282;2022-07-29T08:25:44;4.57;;;1.70;;
51824;SDS011;37879;52.986;6.282;2022-07-29T08:28:10;5.60;;;1.75;;
51824;SDS011;37879;52.986;6.282;2022-07-29T08:30:37;3.92;;;1.90;;
51824;SDS011;37879;52.986;6.282;2022-07-29T08:33:03;3.95;;;1.90;;
51824;SDS011;37879;52.986;6.282;2022-07-29T08:35:29;4.38;;;1.70;;
51824;SDS011;37879;52.986;6.282;2022-07-29T08:37:55;2.50;;;1.25;;
51824;SDS011;37879;52.986;6.282;2022-07-29T08:40:22;3.22;;;2.20;;
51824;SDS011;37879;52.986;6.282;2022-07-29T08:42:49;7.30;;;1.48;;
51824;SDS011;37879;52.986;6.282;2022-07-29T08:45:15;2.90;;;1.55;;
51824;SDS011;37879;52.986;6.282;2022-07-29T08:47:43;4.43;;;2.05;;
51824;SDS011;37879;52.986;6.282;2022-07-29T08:50:10;3.50;;;2.05;;
51824;SDS011;37879;52.986;6.282;2022-07-29T08:52:38;3.55;;;1.50;;
51824;SDS011;37879;52.986;6.282;2022-07-29T08:55:08;3.13;;;1.70;;
51824;SDS011;37879;52.986;6.282;2022-07-29T08:57:35;4.82;;;1.98;;
51824;SDS011;37879;52.986;6.282;2022-07-29T09:00:03;8.30;;;2.00;;
51824;SDS011;37879;52.986;6.282;2022-07-29T09:02:29;4.38;;;2.08;;
51824;SDS011;37879;52.986;6.282;2022-07-29T09:04:58;4.13;;;2.08;;
51824;SDS011;37879;52.986;6.282;2022-07-29T09:07:26;3.85;;;2.20;;
51824;SDS011;37879;52.986;6.282;2022-07-29T09:09:52;6.00;;;2.15;;
51824;SDS011;37879;52.986;6.282;2022-07-29T09:12:18;4.60;;;2.20;;
51824;SDS011;37879;52.986;6.282;2022-07-29T09:14:47;5.25;;;1.90;;
51824;SDS011;37879;52.986;6.282;2022-07-29T09:17:13;5.47;;;2.05;;
51824;SDS011;37879;52.986;6.282;2022-07-29T09:19:42;4.60;;;2.30;;
51824;SDS011;37879;52.986;6.282;2022-07-29T09:22:08;3.88;;;2.90;;
51824;SDS011;37879;52.986;6.282;2022-07-29T09:24:39;5.55;;;2.00;;
51824;SDS011;37879;52.986;6.282;2022-07-29T09:27:27;5.03;;;2.40;;
51824;SDS011;37879;52.986;6.282;2022-07-29T09:32:23;4.25;;;2.05;;
51824;SDS011;37879;52.986;6.282;2022-07-29T09:34:49;4.95;;;2.28;;
51824;SDS011;37879;52.986;6.282;2022-07-29T09:37:28;4.40;;;1.85;;
51824;SDS011;37879;52.986;6.282;2022-07-29T09:39:54;3.90;;;2.05;;
51824;SDS011;37879;52.986;6.282;2022-07-29T09:42:27;5.25;;;2.25;;
51824;SDS011;37879;52.986;6.282;2022-07-29T09:44:54;7.97;;;2.20;;
51824;SDS011;37879;52.986;6.282;2022-07-29T09:47:20;5.78;;;2.67;;
51824;SDS011;37879;52.986;6.282;2022-07-29T09:49:55;5.15;;;2.13;;
51824;SDS011;37879;52.986;6.282;2022-07-29T09:52:28;7.72;;;2.30;;
51824;SDS011;37879;52.986;6.282;2022-07-29T09:55:04;2.65;;;2.20;;
51824;SDS011;37879;52.986;6.282;2022-07-29T09:57:31;4.30;;;2.10;;
51824;SDS011;37879;52.986;6.282;2022-07-29T10:02:27;3.97;;;2.33;;
51824;SDS011;37879;52.986;6.282;2022-07-29T10:04:53;7.50;;;2.50;;
51824;SDS011;37879;52.986;6.282;2022-07-29T10:07:19;5.18;;;2.17;;
51824;SDS011;37879;52.986;6.282;2022-07-29T10:09:49;6.63;;;2.42;;
51824;SDS011;37879;52.986;6.282;2022-07-29T10:12:19;4.70;;;1.90;;
51824;SDS011;37879;52.986;6.282;2022-07-29T10:14:45;4.40;;;2.17;;
51824;SDS011;37879;52.986;6.282;2022-07-29T10:17:11;4.88;;;2.63;;
51824;SDS011;37879;52.986;6.282;2022-07-29T10:19:38;4.20;;;2.25;;
51824;SDS011;37879;52.986;6.282;2022-07-29T10:22:05;5.00;;;2.00;;
51824;SDS011;37879;52.986;6.282;2022-07-29T10:24:32;5.15;;;1.92;;
51824;SDS011;37879;52.986;6.282;2022-07-29T10:27:00;5.78;;;2.22;;
51824;SDS011;37879;52.986;6.282;2022-07-29T10:29:26;5.53;;;2.30;;
51824;SDS011;37879;52.986;6.282;2022-07-29T10:32:00;4.10;;;1.85;;
51824;SDS011;37879;52.986;6.282;2022-07-29T10:37:14;3.22;;;2.05;;
51824;SDS011;37879;52.986;6.282;2022-07-29T10:42:22;4.25;;;2.38;;
51824;SDS011;37879;52.986;6.282;2022-07-29T10:44:49;3.75;;;2.17;;
51824;SDS011;37879;52.986;6.282;2022-07-29T10:47:23;4.50;;;1.83;;
51824;SDS011;37879;52.986;6.282;2022-07-29T10:50:02;5.45;;;1.90;;
51824;SDS011;37879;52.986;6.282;2022-07-29T10:58:18;3.80;;;2.15;;
51824;SDS011;37879;52.986;6.282;2022-07-29T11:00:46;4.90;;;2.40;;
51824;SDS011;37879;52.986;6.282;2022-07-29T11:06:11;4.88;;;2.33;;
51824;SDS011;37879;52.986;6.282;2022-07-29T11:08:38;4.38;;;2.10;;
51824;SDS011;37879;52.986;6.282;2022-07-29T11:13:46;8.45;;;2.88;;
51824;SDS011;37879;52.986;6.282;2022-07-29T11:16:13;6.10;;;3.00;;
51824;SDS011;37879;52.986;6.282;2022-07-29T11:21:41;8.73;;;3.10;;
51824;SDS011;37879;52.986;6.282;2022-07-29T11:24:14;3.67;;;2.55;;
51824;SDS011;37879;52.986;6.282;2022-07-29T11:26:40;6.28;;;2.38;;
51824;SDS011;37879;52.986;6.282;2022-07-29T11:29:18;4.20;;;2.55;;
51824;SDS011;37879;52.986;6.282;2022-07-29T11:31:46;8.85;;;2.80;;
51824;SDS011;37879;52.986;6.282;2022-07-29T11:37:25;6.00;;;2.40;;
51824;SDS011;37879;52.986;6.282;2022-07-29T11:39:42;6.50;;;2.28;;
51824;SDS011;37879;52.986;6.282;2022-07-29T11:44:56;5.28;;;2.00;;
51824;SDS011;37879;52.986;6.282;2022-07-29T11:47:23;5.63;;;2.22;;
51824;SDS011;37879;52.986;6.282;2022-07-29T11:49:52;4.53;;;2.50;;
51824;SDS011;37879;52.986;6.282;2022-07-29T11:52:19;3.97;;;2.30;;
51824;SDS011;37879;52.986;6.282;2022-07-29T11:54:49;4.45;;;1.90;;
51824;SDS011;37879;52.986;6.282;2022-07-29T11:57:15;7.88;;;3.17;;
51824;SDS011;37879;52.986;6.282;2022-07-29T11:59:42;4.93;;;2.10;;
51824;SDS011;37879;52.986;6.282;2022-07-29T12:02:10;3.20;;;1.77;;
51824;SDS011;37879;52.986;6.282;2022-07-29T12:04:55;4.68;;;1.95;;
51824;SDS011;37879;52.986;6.282;2022-07-29T12:09:54;3.67;;;2.08;;
51824;SDS011;37879;52.986;6.282;2022-07-29T12:12:20;3.78;;;2.08;;
51824;SDS011;37879;52.986;6.282;2022-07-29T12:14:47;5.65;;;2.00;;
51824;SDS011;37879;52.986;6.282;2022-07-29T12:17:26;4.05;;;1.83;;
51824;SDS011;37879;52.986;6.282;2022-07-29T12:19:52;5.10;;;2.15;;
51824;SDS011;37879;52.986;6.282;2022-07-29T12:24:52;3.53;;;1.63;;
51824;SDS011;37879;52.986;6.282;2022-07-29T12:27:18;8.70;;;2.08;;
51824;SDS011;37879;52.986;6.282;2022-07-29T12:29:45;4.30;;;2.03;;
51824;SDS011;37879;52.986;6.282;2022-07-29T12:32:11;3.42;;;1.45;;
51824;SDS011;37879;52.986;6.282;2022-07-29T12:34:37;4.93;;;1.80;;
51824;SDS011;37879;52.986;6.282;2022-07-29T12:37:03;6.18;;;2.58;;
51824;SDS011;37879;52.986;6.282;2022-07-29T12:39:29;2.75;;;1.50;;
51824;SDS011;37879;52.986;6.282;2022-07-29T12:41:56;3.20;;;1.75;;
51824;SDS011;37879;52.986;6.282;2022-07-29T12:44:22;5.47;;;1.70;;
51824;SDS011;37879;52.986;6.282;2022-07-29T12:47:04;4.95;;;1.63;;
51824;SDS011;37879;52.986;6.282;2022-07-29T12:49:30;3.35;;;1.50;;
51824;SDS011;37879;52.986;6.282;2022-07-29T12:51:57;4.30;;;1.70;;
51824;SDS011;37879;52.986;6.282;2022-07-29T12:54:23;3.58;;;1.55;;
51824;SDS011;37879;52.986;6.282;2022-07-29T12:56:57;4.88;;;1.90;;
51824;SDS011;37879;52.986;6.282;2022-07-29T12:59:23;6.23;;;2.10;;
51824;SDS011;37879;52.986;6.282;2022-07-29T13:01:50;3.95;;;1.40;;
51824;SDS011;37879;52.986;6.282;2022-07-29T13:04:34;4.22;;;2.08;;
51824;SDS011;37879;52.986;6.282;2022-07-29T13:07:07;6.18;;;1.50;;
51824;SDS011;37879;52.986;6.282;2022-07-29T13:09:41;9.13;;;2.20;;
51824;SDS011;37879;52.986;6.282;2022-07-29T13:12:08;6.28;;;2.10;;
51824;SDS011;37879;52.986;6.282;2022-07-29T13:14:44;13.35;;;2.25;;
51824;SDS011;37879;52.986;6.282;2022-07-29T13:17:15;4.72;;;2.40;;
51824;SDS011;37879;52.986;6.282;2022-07-29T13:19:45;4.55;;;2.10;;
51824;SDS011;37879;52.986;6.282;2022-07-29T13:22:13;6.13;;;2.33;;
51824;SDS011;37879;52.986;6.282;2022-07-29T13:24:46;6.60;;;2.60;;
51824;SDS011;37879;52.986;6.282;2022-07-29T13:27:16;3.90;;;1.92;;
51824;SDS011;37879;52.986;6.282;2022-07-29T13:29:42;4.50;;;1.92;;
51824;SDS011;37879;52.986;6.282;2022-07-29T13:32:09;5.30;;;2.10;;
51824;SDS011;37879;52.986;6.282;2022-07-29T13:34:35;5.35;;;1.85;;
51824;SDS011;37879;52.986;6.282;2022-07-29T13:37:01;4.68;;;2.13;;
51824;SDS011;37879;52.986;6.282;2022-07-29T13:39:27;5.18;;;2.30;;
51824;SDS011;37879;52.986;6.282;2022-07-29T13:41:53;5.07;;;1.95;;
51824;SDS011;37879;52.986;6.282;2022-07-29T13:44:19;6.00;;;1.92;;
51824;SDS011;37879;52.986;6.282;2022-07-29T13:46:46;5.35;;;1.90;;
51824;SDS011;37879;52.986;6.282;2022-07-29T13:49:12;4.38;;;1.63;;
51824;SDS011;37879;52.986;6.282;2022-07-29T13:51:38;4.45;;;1.40;;
51824;SDS011;37879;52.986;6.282;2022-07-29T13:54:04;5.28;;;2.05;;
51824;SDS011;37879;52.986;6.282;2022-07-29T13:56:30;3.58;;;1.95;;
51824;SDS011;37879;52.986;6.282;2022-07-29T13:58:57;5.55;;;1.63;;
51824;SDS011;37879;52.986;6.282;2022-07-29T14:01:23;2.75;;;1.50;;
51824;SDS011;37879;52.986;6.282;2022-07-29T14:03:49;3.22;;;1.50;;
51824;SDS011;37879;52.986;6.282;2022-07-29T14:06:15;3.50;;;1.50;;
51824;SDS011;37879;52.986;6.282;2022-07-29T14:08:42;4.25;;;1.50;;
51824;SDS011;37879;52.986;6.282;2022-07-29T14:11:08;3.15;;;1.73;;
51824;SDS011;37879;52.986;6.282;2022-07-29T14:13:34;2.83;;;1.45;;
51824;SDS011;37879;52.986;6.282;2022-07-29T14:16:00;3.92;;;1.83;;
51824;SDS011;37879;52.986;6.282;2022-07-29T14:18:26;4.43;;;1.30;;
51824;SDS011;37879;52.986;6.282;2022-07-29T14:20:53;3.00;;;1.45;;
51824;SDS011;37879;52.986;6.282;2022-07-29T14:23:19;4.03;;;1.42;;
51824;SDS011;37879;52.986;6.282;2022-07-29T14:25:45;3.33;;;1.50;;
51824;SDS011;37879;52.986;6.282;2022-07-29T14:28:11;3.50;;;1.48;;
51824;SDS011;37879;52.986;6.282;2022-07-29T14:30:38;6.43;;;1.42;;
51824;SDS011;37879;52.986;6.282;2022-07-29T14:33:04;3.78;;;1.40;;
51824;SDS011;37879;52.986;6.282;2022-07-29T14:35:31;3.75;;;1.38;;
51824;SDS011;37879;52.986;6.282;2022-07-29T14:37:57;2.63;;;1.40;;
51824;SDS011;37879;52.986;6.282;2022-07-29T14:40:23;4.57;;;1.63;;
51824;SDS011;37879;52.986;6.282;2022-07-29T14:42:50;7.22;;;2.22;;
51824;SDS011;37879;52.986;6.282;2022-07-29T14:45:17;4.47;;;1.83;;
51824;SDS011;37879;52.986;6.282;2022-07-29T14:47:43;4.35;;;1.63;;
51824;SDS011;37879;52.986;6.282;2022-07-29T14:50:09;9.23;;;2.03;;
51824;SDS011;37879;52.986;6.282;2022-07-29T14:52:35;3.97;;;2.10;;
51824;SDS011;37879;52.986;6.282;2022-07-29T14:55:02;4.43;;;1.40;;
51824;SDS011;37879;52.986;6.282;2022-07-29T14:57:29;4.05;;;1.60;;
51824;SDS011;37879;52.986;6.282;2022-07-29T14:59:55;6.07;;;1.55;;
51824;SDS011;37879;52.986;6.282;2022-07-29T15:02:21;3.10;;;1.40;;
51824;SDS011;37879;52.986;6.282;2022-07-29T15:04:47;3.20;;;1.60;;
51824;SDS011;37879;52.986;6.282;2022-07-29T15:07:14;5.90;;;1.85;;
51824;SDS011;37879;52.986;6.282;2022-07-29T15:09:41;3.47;;;1.58;;
51824;SDS011;37879;52.986;6.282;2022-07-29T15:12:07;3.42;;;1.40;;
51824;SDS011;37879;52.986;6.282;2022-07-29T15:14:35;4.38;;;1.92;;
51824;SDS011;37879;52.986;6.282;2022-07-29T15:17:01;3.88;;;1.95;;
51824;SDS011;37879;52.986;6.282;2022-07-29T15:19:27;3.25;;;1.50;;
51824;SDS011;37879;52.986;6.282;2022-07-29T15:21:53;3.70;;;1.55;;
51824;SDS011;37879;52.986;6.282;2022-07-29T15:24:19;2.97;;;1.45;;
51824;SDS011;37879;52.986;6.282;2022-07-29T15:26:46;3.10;;;1.42;;
51824;SDS011;37879;52.986;6.282;2022-07-29T15:29:13;2.72;;;1.70;;
51824;SDS011;37879;52.986;6.282;2022-07-29T15:31:39;5.68;;;1.63;;
51824;SDS011;37879;52.986;6.282;2022-07-29T15:34:05;3.15;;;1.48;;
51824;SDS011;37879;52.986;6.282;2022-07-29T15:36:32;4.78;;;1.63;;